Time;durP1;ratioP1;P1;durP2;ratioP2;P2;SDS_P1;SDS_P2;PMS_P1;PMS_P2;Temp;Humidity;BMP_temperature;BMP_pressure;BME280_temperature;BME280_humidity;BME280_pressure;Samples;Min_cycle;Max_cycle;Signal;HPM_P1;HPM_P2
2022/01/13 05:11:12;;;;;;;;;;;;;;;-1.13;71.61;98776.63;4284778;27;10332;-64
2022/01/13 05:13:15;;;;;;;;;;;;;;;-1.00;71.24;98775.16;4261188;27;5635;-63
2022/01/13 05:15:23;;;;;;;;;;;;;;;-0.98;71.17;98781.94;4266490;27;5623;-64
2022/01/13 05:19:58;;;;;;;;;;;;;;;-0.81;70.68;98775.94;4259906;27;5047;-64
2022/01/13 05:22:21;;;;;;;;;;;;;;;-0.77;70.63;98774.03;4258968;27;7711;-64
2022/01/13 05:24:22;;;;;;;;;;;;;;;-0.77;70.47;98772.28;4264786;27;5831;-64
2022/01/13 05:26:34;;;;;;;;;;;;;;;-0.76;70.50;98775.72;4260231;27;5589;-64
2022/01/13 05:28:36;;;;;;;;;;;;;;;-0.75;70.55;98775.66;4249599;27;5665;-64
2022/01/13 05:30:39;;;;;;;;;;;;;;;-0.74;70.22;98776.47;4258226;27;5687;-64
2022/01/13 05:32:41;;;;;;;;;;;;;;;-0.70;70.36;98773.66;4265048;27;5707;-64
2022/01/13 05:34:42;;;;;;;;;;;;;;;-0.73;70.35;98773.81;4265868;27;5731;-64
2022/01/13 05:36:45;;;;;;;;;;;;;;;-0.83;70.71;98776.91;4266309;27;5838;-64
2022/01/13 05:38:46;;;;;;;;;;;;;;;-0.88;70.77;98779.75;4264816;27;5651;-64
2022/01/13 05:40:48;;;;;;;;;;;;;;;-0.91;70.96;98779.88;4248748;27;5835;-64
2022/01/13 05:42:50;;;;;;;;;;;;;;;-0.92;71.03;98783.38;4249336;27;5716;-64
2022/01/13 05:44:52;;;;;;;;;;;;;;;-0.95;70.88;98779.19;4262577;27;5631;-64
2022/01/13 05:46:54;;;;;;;;;;;;;;;-1.02;71.24;98783.00;4265288;27;5704;-64
2022/01/13 05:48:56;;;;;;;;;;;;;;;-1.03;71.27;98785.66;4254423;27;5608;-64
2022/01/13 05:50:59;;;;;;;;;;;;;;;-1.04;71.29;98783.97;4253592;27;5658;-64
2022/01/13 05:53:00;;;;;;;;;;;;;;;-1.08;71.52;98774.66;4248160;27;5685;-67
2022/01/13 05:55:04;;;;;;;;;;;;;;;-1.07;71.60;98778.94;4260380;27;7707;-66
2022/01/13 05:57:06;;;;;;;;;;;;;;;-1.04;71.27;98774.44;4265271;27;5589;-66
2022/01/13 05:59:08;;;;;;;;;;;;;;;-0.98;71.20;98778.50;4251037;27;5805;-67
2022/01/13 06:01:09;;;;;;;;;;;;;;;-0.93;71.06;98779.13;4247961;27;6843;-66
2022/01/13 06:03:11;;;;;;;;;;;;;;;-0.86;70.84;98777.06;4248886;27;5702;-66
2022/01/13 06:05:14;;;;;;;;;;;;;;;-0.84;70.65;98778.69;4255856;27;5594;-66
2022/01/13 06:07:16;;;;;;;;;;;;;;;-0.79;70.52;98778.44;4242849;27;5600;-66
2022/01/13 06:09:20;;;;;;;;;;;;;;;-0.77;70.48;98771.44;4264951;27;5622;-66
2022/01/13 06:11:24;;;;;;;;;;;;;;;-0.73;70.38;98771.22;4259853;27;5614;-66
2022/01/13 06:13:28;;;;;;;;;;;;;;;-0.73;70.23;98772.97;4249669;27;5644;-66
2022/01/13 06:15:31;;;;;;;;;;;;;;;-0.71;70.25;98766.78;4236958;28;5688;-66
2022/01/13 06:17:35;;;;;;;;;;;;;;;-0.67;70.23;98773.53;4252639;27;5650;-66
2022/01/13 06:19:36;;;;;;;;;;;;;;;-0.64;70.10;98772.53;4247597;27;5800;-66
2022/01/13 06:21:39;;;;;;;;;;;;;;;-0.61;69.96;98761.97;4241117;27;5164;-66
2022/01/13 06:23:41;;;;;;;;;;;;;;;-0.61;69.91;98764.56;4238138;27;5649;-66
2022/01/13 06:25:42;;;;;;;;;;;;;;;-0.67;70.08;98757.94;4241557;27;5601;-66
2022/01/13 06:27:44;;;;;;;;;;;;;;;-0.83;70.30;98766.53;4237237;27;5765;-67
2022/01/13 06:30:11;;;;;;;;;;;;;;;-0.97;70.46;98765.44;4236348;28;5633;-67
2022/01/13 06:32:12;;;;;;;;;;;;;;;-1.05;70.85;98764.13;4236268;28;5616;-67
2022/01/13 06:34:14;;;;;;;;;;;;;;;-1.05;70.78;98759.78;4237216;28;5665;-68
2022/01/13 06:36:15;;;;;;;;;;;;;;;-1.02;70.67;98764.84;4237593;28;5637;-67
2022/01/13 06:38:17;;;;;;;;;;;;;;;-1.01;70.69;98768.28;4237860;28;5784;-67
2022/01/13 06:40:18;;;;;;;;;;;;;;;-0.95;70.55;98775.75;4236671;28;5585;-67
2022/01/13 06:42:20;;;;;;;;;;;;;;;-0.91;70.38;98766.91;4236263;28;5668;-67
2022/01/13 06:44:22;;;;;;;;;;;;;;;-0.89;70.23;98765.09;4239848;27;5735;-67
2022/01/13 06:46:23;;;;;;;;;;;;;;;-0.85;70.07;98777.00;4246737;27;5592;-67
2022/01/13 06:48:25;;;;;;;;;;;;;;;-0.84;70.03;98777.84;4251865;27;5643;-67
2022/01/13 06:50:29;;;;;;;;;;;;;;;-0.83;70.13;98780.34;4247404;27;5761;-67
2022/01/13 06:52:30;;;;;;;;;;;;;;;-0.86;69.96;98783.13;4251105;27;5597;-67
2022/01/13 06:54:32;;;;;;;;;;;;;;;-0.79;70.03;98788.84;4239177;27;5620;-67
2022/01/13 06:56:37;;;;;;;;;;;;;;;-0.77;69.90;98787.03;4236501;27;5641;-67
2022/01/13 06:58:38;;;;;;;;;;;;;;;-0.72;70.01;98791.06;4236149;27;5661;-68
2022/01/13 07:00:40;;;;;;;;;;;;;;;-0.75;69.76;98793.00;4240376;27;5711;-68
2022/01/13 07:02:43;;;;;;;;;;;;;;;-0.81;69.87;98794.09;4236484;27;5653;-68
2022/01/13 07:04:47;;;;;;;;;;;;;;;-0.85;69.97;98800.38;4242840;27;5808;-68
2022/01/13 07:06:48;;;;;;;;;;;;;;;-0.88;70.01;98798.78;4237551;27;5612;-67
2022/01/13 07:08:51;;;;;;;;;;;;;;;-0.94;70.06;98795.63;4251943;27;5632;-68
2022/01/13 07:10:52;;;;;;;;;;;;;;;-1.00;70.27;98796.75;4250635;27;5756;-69
2022/01/13 07:12:54;;;;;;;;;;;;;;;-0.99;70.22;98802.78;4242275;27;5636;-68
2022/01/13 07:14:57;;;;;;;;;;;;;;;-0.96;70.07;98802.63;4253413;27;5744;-68
2022/01/13 07:17:00;;;;;;;;;;;;;;;-0.95;69.92;98799.97;4237601;27;5755;-68
2022/01/13 07:19:07;;;;;;;;;;;;;;;-0.97;70.11;98811.34;4245016;27;5621;-69
2022/01/13 07:21:10;;;;;;;;;;;;;;;-0.96;70.16;98818.22;4254038;27;5611;-68
2022/01/13 07:23:11;;;;;;;;;;;;;;;-0.95;70.08;98809.50;4249018;27;5596;-68
2022/01/13 07:25:13;;;;;;;;;;;;;;;-0.91;70.08;98817.09;4238850;27;5597;-68
2022/01/13 07:27:14;;;;;;;;;;;;;;;-0.91;70.14;98816.22;4240473;27;5600;-68
2022/01/13 07:29:16;;;;;;;;;;;;;;;-0.89;70.15;98819.63;4250034;27;5979;-68
2022/01/13 07:31:19;;;;;;;;;;;;;;;-0.92;70.37;98810.19;4248591;27;5631;-68
2022/01/13 07:33:21;;;;;;;;;;;;;;;-0.93;70.53;98813.72;4247388;27;6349;-68
2022/01/13 07:35:23;;;;;;;;;;;;;;;-0.89;70.46;98830.00;4248771;27;5624;-68
2022/01/13 07:37:24;;;;;;;;;;;;;;;-0.88;70.46;98829.09;4239533;27;5761;-68
2022/01/13 07:39:28;;;;;;;;;;;;;;;-0.98;71.00;98835.63;4236726;28;5668;-68
2022/01/13 07:41:29;;;;;;;;;;;;;;;-1.07;71.92;98836.03;4240639;27;6346;-68
2022/01/13 07:43:33;;;;;;;;;;;;;;;-0.89;71.02;98835.19;4252008;27;5610;-68
2022/01/13 07:45:35;;;;;;;;;;;;;;;-0.80;70.77;98833.91;4246271;27;5649;-68
2022/01/13 07:47:37;;;;;;;;;;;;;;;-0.79;70.63;98836.44;4247389;27;5619;-68
2022/01/13 07:49:38;;;;;;;;;;;;;;;-0.71;70.56;98839.50;4236496;27;5773;-68
2022/01/13 07:51:41;;;;;;;;;;;;;;;-0.75;70.64;98826.75;4235712;27;5707;-68
2022/01/13 07:53:42;;;;;;;;;;;;;;;-0.65;70.41;98833.19;4245593;27;5631;-69
2022/01/13 07:55:45;;;;;;;;;;;;;;;-0.59;70.50;98830.28;4253705;27;5611;-69
2022/01/13 07:57:46;;;;;;;;;;;;;;;-0.66;70.64;98826.31;4236172;27;5668;-68
2022/01/13 07:59:48;;;;;;;;;;;;;;;-0.70;70.79;98825.59;4234534;28;5600;-68
2022/01/13 08:01:51;;;;;;;;;;;;;;;-0.71;70.77;98836.91;4234587;28;5786;-68
2022/01/13 08:03:52;;;;;;;;;;;;;;;-0.71;70.90;98828.28;4234177;28;5702;-68
2022/01/13 08:05:54;;;;;;;;;;;;;;;-0.67;70.67;98841.06;4236310;28;5756;-68
2022/01/13 08:07:56;;;;;;;;;;;;;;;-0.61;70.65;98851.16;4236137;28;5684;-68
2022/01/13 08:09:57;;;;;;;;;;;;;;;-0.57;70.54;98844.03;4235611;28;5661;-67
2022/01/13 08:11:59;;;;;;;;;;;;;;;-0.53;70.27;98844.75;4248373;27;5582;-67
2022/01/13 08:14:00;;;;;;;;;;;;;;;-0.50;70.07;98836.78;4248927;27;5645;-67
2022/01/13 08:16:07;;;;;;;;;;;;;;;-0.46;69.96;98835.72;4235637;27;5680;-68
2022/01/13 08:20:30;;;;;;;;;;;;;;;-0.47;69.95;98834.88;4234424;28;5695;-67
2022/01/13 08:22:32;;;;;;;;;;;;;;;-0.50;69.71;98832.44;4235527;27;5641;-67
2022/01/13 08:24:33;;;;;;;;;;;;;;;-0.40;69.40;98849.28;4246120;27;5806;-68
2022/01/13 08:26:35;;;;;;;;;;;;;;;-0.31;69.28;98845.38;4234823;28;5127;-68
2022/01/13 08:28:37;;;;;;;;;;;;;;;-0.49;69.43;98841.06;4243613;27;7672;-68
2022/01/13 08:30:39;;;;;;;;;;;;;;;-0.37;69.15;98843.06;4241959;27;5783;-68
2022/01/13 08:32:41;;;;;;;;;;;;;;;-0.40;69.13;98848.44;4236865;27;7027;-67
2022/01/13 08:34:43;;;;;;;;;;;;;;;-0.36;69.17;98850.78;4239161;27;5734;-67
2022/01/13 08:36:45;;;;;;;;;;;;;;;-0.41;68.97;98841.56;4238746;27;5753;-67
2022/01/13 08:38:49;;;;;;;;;;;;;;;-0.63;69.59;98842.59;4235737;27;5652;-67
2022/01/13 08:40:54;;;;;;;;;;;;;;;-0.64;70.13;98840.91;4238437;27;5780;-67
2022/01/13 08:42:56;;;;;;;;;;;;;;;-0.39;69.75;98850.94;4244138;27;5656;-67
2022/01/13 08:44:57;;;;;;;;;;;;;;;-0.28;69.48;98842.63;4235885;27;6585;-67
2022/01/13 08:46:59;;;;;;;;;;;;;;;-0.23;69.74;98840.63;4236483;27;5640;-68
2022/01/13 08:49:04;;;;;;;;;;;;;;;-0.23;69.71;98845.00;4243946;27;5647;-68
2022/01/13 08:51:05;;;;;;;;;;;;;;;-0.17;69.67;98840.34;4243807;27;5706;-68
2022/01/13 08:53:07;;;;;;;;;;;;;;;-0.21;69.82;98835.38;4234913;27;7086;-69
2022/01/13 08:55:09;;;;;;;;;;;;;;;-0.16;69.82;98841.19;4238766;27;5643;-69
2022/01/13 08:57:11;;;;;;;;;;;;;;;-0.08;69.55;98839.88;4241392;27;5706;-69
2022/01/13 08:59:13;;;;;;;;;;;;;;;-0.06;69.45;98839.81;4253052;27;5747;-69
2022/01/13 09:01:14;;;;;;;;;;;;;;;-0.04;69.52;98846.59;4245450;27;5608;-69
2022/01/13 09:03:16;;;;;;;;;;;;;;;-0.04;69.64;98840.56;4235091;27;5776;-69
2022/01/13 09:05:20;;;;;;;;;;;;;;;-0.05;69.78;98834.53;4235097;28;5661;-69
2022/01/13 09:07:22;;;;;;;;;;;;;;;-0.14;70.10;98839.34;4248445;27;5631;-69
2022/01/13 09:09:38;;;;;;;;;;;;;;;0.00;69.84;98842.13;4252292;27;5702;-69
2022/01/13 09:11:44;;;;;;;;;;;;;;;0.11;69.49;98838.94;4249883;27;5671;-69
2022/01/13 09:13:46;;;;;;;;;;;;;;;0.09;69.10;98839.03;4244898;27;5744;-69
2022/01/13 09:15:59;;;;;;;;;;;;;;;0.08;69.16;98844.31;4234962;27;5649;-69
2022/01/13 09:18:09;;;;;;;;;;;;;;;0.06;68.96;98853.94;4234244;28;5711;-69
2022/01/13 09:20:12;;;;;;;;;;;;;;;0.04;69.30;98848.00;4240582;27;5619;-69
2022/01/13 09:22:13;;;;;;;;;;;;;;;0.07;69.13;98842.63;4262023;27;5583;-69
2022/01/13 09:24:18;;;;;;;;;;;;;;;0.05;68.55;98844.47;4234912;27;5648;-69
2022/01/13 09:26:20;;;;;;;;;;;;;;;0.02;68.42;98861.06;4236334;27;5604;-69
2022/01/13 09:28:21;;;;;;;;;;;;;;;-0.04;67.87;98849.19;4250111;27;5799;-69
2022/01/13 09:30:23;;;;;;;;;;;;;;;-0.04;67.58;98850.97;4247782;27;5631;-69
2022/01/13 09:32:26;;;;;;;;;;;;;;;-0.04;67.89;98850.97;4237210;27;5701;-68
2022/01/13 09:34:27;;;;;;;;;;;;;;;-0.20;67.98;98847.47;4240948;27;5593;-67
2022/01/13 09:36:30;;;;;;;;;;;;;;;-0.11;67.83;98850.44;4249155;27;5778;-68
2022/01/13 09:38:32;;;;;;;;;;;;;;;-0.05;67.84;98860.53;4238331;27;5652;-68
2022/01/13 09:40:36;;;;;;;;;;;;;;;-0.16;67.51;98849.81;4250799;27;5601;-68
2022/01/13 09:42:40;;;;;;;;;;;;;;;-0.20;67.93;98860.47;4237350;27;5615;-67
2022/01/13 09:44:42;;;;;;;;;;;;;;;-0.18;67.75;98869.84;4250564;27;5614;-68
2022/01/13 09:46:45;;;;;;;;;;;;;;;-0.18;67.85;98869.00;4236735;27;5648;-68
2022/01/13 09:48:46;;;;;;;;;;;;;;;-0.11;67.62;98865.22;4240486;27;5774;-69
2022/01/13 09:50:48;;;;;;;;;;;;;;;-0.11;67.51;98860.84;4249909;27;5593;-69
2022/01/13 09:52:50;;;;;;;;;;;;;;;-0.34;69.17;98858.50;4247706;27;5604;-68
2022/01/13 09:54:52;;;;;;;;;;;;;;;-0.06;68.74;98861.44;4239152;27;5656;-69
2022/01/13 09:56:56;;;;;;;;;;;;;;;0.00;68.43;98862.91;4243213;27;6315;-69
2022/01/13 09:58:57;;;;;;;;;;;;;;;0.04;68.47;98863.59;4248619;27;5760;-69
2022/01/13 10:00:59;;;;;;;;;;;;;;;-0.01;68.29;98866.41;4238022;27;5730;-69
2022/01/13 10:03:15;;;;;;;;;;;;;;;0.06;68.61;98872.16;4237750;28;5760;-69
2022/01/13 10:05:19;;;;;;;;;;;;;;;0.10;68.41;98868.47;4237345;27;5649;-69
2022/01/13 10:07:31;;;;;;;;;;;;;;;0.21;68.21;98863.56;4219963;28;5750;-68
2022/01/13 10:09:57;;;;;;;;;;;;;;;0.06;68.38;98857.38;4236450;28;6326;-69
2022/01/13 10:11:59;;;;;;;;;;;;;;;0.08;68.66;98860.75;4241191;27;5608;-69
2022/01/13 10:14:06;;;;;;;;;;;;;;;0.30;68.41;98855.28;4253616;27;5610;-69
2022/01/13 10:16:23;;;;;;;;;;;;;;;0.27;68.26;98855.47;4237901;27;5652;-69
2022/01/13 10:18:41;;;;;;;;;;;;;;;0.44;68.04;98858.00;4237628;27;5652;-69
2022/01/13 10:20:42;;;;;;;;;;;;;;;0.49;67.83;98856.03;4235696;27;5616;-70
2022/01/13 10:22:46;;;;;;;;;;;;;;;0.41;68.03;98857.34;4240033;27;5613;-68
2022/01/13 10:24:54;;;;;;;;;;;;;;;0.23;68.74;98851.34;4236926;27;5668;-69
2022/01/13 10:27:10;;;;;;;;;;;;;;;0.28;67.76;98851.94;4236886;27;5776;-69
2022/01/13 10:29:13;;;;;;;;;;;;;;;0.33;68.54;98860.34;4240685;27;5691;-69
2022/01/13 10:31:15;;;;;;;;;;;;;;;0.54;68.25;98842.78;4248291;27;5926;-68
2022/01/13 10:33:22;;;;;;;;;;;;;;;0.56;68.02;98848.72;4235980;28;5608;-69
2022/01/13 10:35:24;;;;;;;;;;;;;;;0.44;68.02;98845.00;4252704;27;5802;-69
2022/01/13 10:37:35;;;;;;;;;;;;;;;0.44;68.37;98854.56;4253806;27;5581;-69
2022/01/13 10:39:49;;;;;;;;;;;;;;;0.29;68.45;98853.63;4242614;27;5717;-69
2022/01/13 10:42:13;;;;;;;;;;;;;;;0.21;68.82;98846.19;4236889;27;5708;-69
2022/01/13 10:44:22;;;;;;;;;;;;;;;0.35;68.38;98844.66;4237248;27;5130;-68
2022/01/13 10:46:24;;;;;;;;;;;;;;;0.44;68.53;98837.19;4219248;28;7673;-68
2022/01/13 10:48:28;;;;;;;;;;;;;;;0.48;68.59;98843.94;4236736;27;5757;-69
2022/01/13 10:50:36;;;;;;;;;;;;;;;0.49;68.70;98845.63;4234947;27;5604;-69
2022/01/13 10:52:39;;;;;;;;;;;;;;;0.60;68.28;98834.66;4251379;27;5594;-69
2022/01/13 10:54:40;;;;;;;;;;;;;;;0.01;68.45;98848.16;4236093;28;5620;-69
2022/01/13 10:56:44;;;;;;;;;;;;;;;0.24;68.84;98846.06;4236518;27;5846;-69
2022/01/13 10:58:51;;;;;;;;;;;;;;;0.12;69.07;98835.44;4236694;27;5652;-69
2022/01/13 11:00:56;;;;;;;;;;;;;;;0.32;68.41;98840.44;4236058;27;5607;-69
2022/01/13 11:03:03;;;;;;;;;;;;;;;0.26;68.85;98833.81;4218938;28;5619;-69
2022/01/13 11:05:05;;;;;;;;;;;;;;;0.21;69.70;98837.56;4236341;27;5648;-69
2022/01/13 11:07:15;;;;;;;;;;;;;;;0.41;69.11;98829.56;4206893;28;5108;-69
2022/01/13 11:09:17;;;;;;;;;;;;;;;0.49;68.90;98827.41;4202202;28;7707;-69
2022/01/13 11:11:25;;;;;;;;;;;;;;;0.33;68.53;98823.91;4237133;27;5641;-69
2022/01/13 11:13:29;;;;;;;;;;;;;;;0.52;68.38;98819.44;4235135;27;5741;-69
2022/01/13 11:15:31;;;;;;;;;;;;;;;0.57;68.36;98827.84;4251223;27;5751;-69
2022/01/13 11:17:37;;;;;;;;;;;;;;;0.62;68.24;98829.34;4253602;27;5635;-69
2022/01/13 11:19:44;;;;;;;;;;;;;;;0.58;68.41;98819.13;4241208;27;5757;-68
2022/01/13 11:21:47;;;;;;;;;;;;;;;0.55;68.63;98827.06;4236785;27;5855;-69
2022/01/13 11:23:50;;;;;;;;;;;;;;;0.55;68.79;98824.47;4235071;27;5781;-69
2022/01/13 11:25:55;;;;;;;;;;;;;;;0.28;69.34;98825.91;4236136;27;6520;-69
2022/01/13 11:27:57;;;;;;;;;;;;;;;0.45;69.11;98828.47;4245181;27;5728;-69
2022/01/13 11:30:00;;;;;;;;;;;;;;;0.34;69.12;98827.34;4248654;27;5070;-69
2022/01/13 11:32:02;;;;;;;;;;;;;;;0.42;68.81;98827.81;4237851;27;7842;-69
2022/01/13 11:34:04;;;;;;;;;;;;;;;0.53;68.59;98823.72;4246375;27;5763;-69
2022/01/13 11:36:12;;;;;;;;;;;;;;;0.70;68.03;98819.38;4240181;27;5810;-69
2022/01/13 11:38:18;;;;;;;;;;;;;;;0.58;67.48;98826.94;4250127;27;6379;-69
2022/01/13 11:40:28;;;;;;;;;;;;;;;0.54;67.98;98820.19;4235083;27;6449;-69
2022/01/13 11:42:44;;;;;;;;;;;;;;;0.67;67.85;98820.38;4248891;27;5697;-69
2022/01/13 11:45:16;;;;;;;;;;;;;;;0.49;68.04;98824.81;4236602;27;5756;-69
2022/01/13 11:47:22;;;;;;;;;;;;;;;0.64;67.64;98822.31;4233078;27;5743;-69
2022/01/13 11:49:43;;;;;;;;;;;;;;;0.62;67.86;98805.94;4237417;27;5831;-69
2022/01/13 11:51:56;;;;;;;;;;;;;;;0.67;67.63;98811.72;4232194;27;5711;-69
2022/01/13 11:54:00;;;;;;;;;;;;;;;0.69;67.58;98807.31;4236934;27;5882;-69
2022/01/13 11:56:06;;;;;;;;;;;;;;;0.62;67.80;98808.53;4241192;27;5730;-68
2022/01/13 11:58:25;;;;;;;;;;;;;;;0.52;68.29;98808.19;4238307;27;5722;-69
2022/01/13 12:00:29;;;;;;;;;;;;;;;0.66;68.15;98802.22;4237196;27;5719;-69
2022/01/13 12:02:42;;;;;;;;;;;;;;;0.63;68.15;98810.22;4233060;27;5810;-69
2022/01/13 12:05:05;;;;;;;;;;;;;;;0.81;67.78;98806.63;4238452;27;5863;-69
2022/01/13 12:07:36;;;;;;;;;;;;;;;0.82;67.65;98800.50;4220537;27;5222;-69
2022/01/13 12:09:39;;;;;;;;;;;;;;;0.80;67.53;98791.94;4245397;27;5692;-69
2022/01/13 12:11:55;;;;;;;;;;;;;;;0.78;67.82;98796.38;4243914;27;5688;-69
2022/01/13 12:13:57;;;;;;;;;;;;;;;0.81;68.03;98793.63;4231352;27;5788;-69
2022/01/13 12:16:00;;;;;;;;;;;;;;;0.88;68.02;98790.56;4229082;27;5850;-69
2022/01/13 12:18:05;;;;;;;;;;;;;;;0.86;67.92;98782.00;4231307;27;5703;-68
2022/01/13 12:20:26;;;;;;;;;;;;;;;0.84;67.72;98786.47;4230251;28;5726;-71
2022/01/13 12:22:50;;;;;;;;;;;;;;;0.81;67.96;98778.84;4258900;27;5685;-70
2022/01/13 12:25:02;;;;;;;;;;;;;;;0.89;67.63;98791.41;4233761;27;5780;-69
2022/01/13 12:27:03;;;;;;;;;;;;;;;0.96;67.73;98787.56;4235469;27;5717;-69
2022/01/13 12:29:12;;;;;;;;;;;;;;;0.91;67.85;98776.56;4248790;27;5809;-69
2022/01/13 12:31:27;;;;;;;;;;;;;;;1.01;67.76;98785.53;4248345;27;5923;-69
2022/01/13 12:33:31;;;;;;;;;;;;;;;0.98;67.91;98785.69;4229294;27;5759;-69
2022/01/13 12:35:47;;;;;;;;;;;;;;;0.95;67.95;98780.66;4248045;27;5716;-69
2022/01/13 12:38:18;;;;;;;;;;;;;;;1.03;68.30;98778.50;4229042;28;5840;-69
2022/01/13 12:40:24;;;;;;;;;;;;;;;0.93;68.40;98784.28;4248148;27;5788;-69
2022/01/13 12:42:49;;;;;;;;;;;;;;;1.04;68.30;98779.31;4248079;27;5693;-69
2022/01/13 12:47:17;;;;;;;;;;;;;;;0.95;68.11;98770.25;4253091;27;5807;-69
2022/01/13 12:49:24;;;;;;;;;;;;;;;1.07;68.24;98777.38;4248377;27;5857;-69
2022/01/13 12:51:27;;;;;;;;;;;;;;;1.08;68.04;98770.41;4235659;27;5754;-69
2022/01/13 12:53:33;;;;;;;;;;;;;;;1.05;67.89;98767.97;4245673;27;6142;-69
2022/01/13 12:55:45;;;;;;;;;;;;;;;1.03;67.92;98768.06;4251526;27;5680;-69
2022/01/13 12:57:53;;;;;;;;;;;;;;;0.88;67.74;98764.53;4252657;27;5745;-67
2022/01/13 12:59:56;;;;;;;;;;;;;;;0.99;67.93;98771.75;4250587;27;6493;-70
2022/01/13 13:02:00;;;;;;;;;;;;;;;1.05;68.36;98765.38;4248946;27;5849;-70
2022/01/13 13:04:05;;;;;;;;;;;;;;;0.97;68.22;98762.34;4232758;27;5964;-70
2022/01/13 13:06:12;;;;;;;;;;;;;;;1.06;68.21;98759.25;4245851;27;6505;-69
2022/01/13 13:08:19;;;;;;;;;;;;;;;1.02;67.93;98766.41;4258435;27;5678;-69
2022/01/13 13:10:20;;;;;;;;;;;;;;;0.98;67.89;98762.25;4258527;27;5743;-70
2022/01/13 13:12:26;;;;;;;;;;;;;;;0.73;68.76;98761.94;4258734;27;5689;-68
2022/01/13 13:15:39;;;;;;;;;;;;;;;0.75;68.94;98753.13;4239380;27;5709;-73
2022/01/13 13:17:00;;;;;;;;;;;;;;;0.95;68.58;98754.63;4261341;27;5827;-72
2022/01/13 13:19:02;;;;;;;;;;;;;;;1.17;68.08;98757.72;4259011;27;5677;-69
2022/01/13 13:21:06;;;;;;;;;;;;;;;1.12;68.58;98749.28;4258883;27;6468;-68
2022/01/13 13:23:10;;;;;;;;;;;;;;;1.24;68.20;98754.75;4261661;27;5868;-71
2022/01/13 13:25:12;;;;;;;;;;;;;;;1.13;68.60;98748.41;4264709;27;5677;-68
2022/01/13 13:27:25;;;;;;;;;;;;;;;1.32;68.18;98747.34;4266117;27;5716;-70
2022/01/13 13:29:27;;;;;;;;;;;;;;;1.34;68.36;98754.13;4258969;27;5674;-69
2022/01/13 13:31:30;;;;;;;;;;;;;;;1.20;68.37;98758.47;4256769;27;5682;-72
2022/01/13 13:33:39;;;;;;;;;;;;;;;1.35;68.35;98744.53;4265640;27;5670;-71
2022/01/13 13:35:41;;;;;;;;;;;;;;;1.29;68.37;98745.75;4241416;27;5405;-71
2022/01/13 13:37:46;;;;;;;;;;;;;;;1.42;68.13;98753.69;4221803;27;7469;-70
2022/01/13 13:39:48;;;;;;;;;;;;;;;1.30;68.18;98744.81;4243201;27;5682;-70
2022/01/13 13:41:56;;;;;;;;;;;;;;;1.48;67.89;98748.16;4248525;27;5835;-68
2022/01/13 13:44:00;;;;;;;;;;;;;;;1.55;67.48;98752.06;4251553;27;5742;-69
2022/01/13 13:46:04;;;;;;;;;;;;;;;1.23;68.11;98748.69;4256050;27;5724;-68
2022/01/13 13:48:06;;;;;;;;;;;;;;;1.21;68.48;98757.53;4237698;27;5727;-68
2022/01/13 13:50:08;;;;;;;;;;;;;;;1.47;67.88;98756.88;4251885;27;5696;-69
2022/01/13 13:52:11;;;;;;;;;;;;;;;1.57;67.35;98759.78;4237314;27;5730;-69
2022/01/13 13:54:13;;;;;;;;;;;;;;;1.57;67.38;98758.03;4264042;27;6863;-69
2022/01/13 13:56:15;;;;;;;;;;;;;;;1.57;67.24;98752.81;4261924;27;5728;-69
2022/01/13 13:58:20;;;;;;;;;;;;;;;1.43;67.63;98753.59;4249950;27;5681;-69
2022/01/13 14:00:28;;;;;;;;;;;;;;;1.45;67.41;98749.16;4244679;27;5812;-68
2022/01/13 14:02:35;;;;;;;;;;;;;;;1.45;67.63;98754.34;4260956;27;5783;-69
2022/01/13 14:04:55;;;;;;;;;;;;;;;1.41;67.54;98757.25;4259363;27;5589;-69
2022/01/13 14:06:57;;;;;;;;;;;;;;;1.34;67.69;98756.75;4228811;28;5724;-69
2022/01/13 14:08:59;;;;;;;;;;;;;;;1.41;67.92;98749.41;4256743;27;5673;-69
2022/01/13 14:11:10;;;;;;;;;;;;;;;1.48;67.62;98752.53;4239024;27;5787;-69
2022/01/13 14:13:12;;;;;;;;;;;;;;;1.46;67.50;98747.38;4259406;27;5613;-69
2022/01/13 14:15:21;;;;;;;;;;;;;;;1.41;67.60;98752.03;4237791;27;5689;-69
2022/01/13 14:17:33;;;;;;;;;;;;;;;1.42;67.85;98751.09;4253343;27;6699;-69
2022/01/13 14:19:34;;;;;;;;;;;;;;;1.46;67.78;98750.81;4265287;27;5585;-69
2022/01/13 14:21:50;;;;;;;;;;;;;;;1.41;67.64;98741.59;4247477;27;5785;-69
2022/01/13 14:23:52;;;;;;;;;;;;;;;1.16;68.88;98743.00;4264097;27;5748;-69
2022/01/13 14:26:07;;;;;;;;;;;;;;;1.34;68.39;98735.88;4243374;27;5759;-69
2022/01/13 14:28:11;;;;;;;;;;;;;;;1.24;68.75;98739.09;4259449;27;5569;-69
2022/01/13 14:30:13;;;;;;;;;;;;;;;1.43;68.29;98739.75;4222779;28;5726;-69
2022/01/13 14:32:25;;;;;;;;;;;;;;;1.44;67.80;98737.03;4261562;27;5558;-69
2022/01/13 14:34:28;;;;;;;;;;;;;;;1.55;67.79;98738.19;4239120;27;6333;-69
2022/01/13 14:36:37;;;;;;;;;;;;;;;1.57;67.53;98731.94;4243079;27;5659;-69
2022/01/13 14:38:50;;;;;;;;;;;;;;;1.52;67.56;98734.00;4229453;27;5679;-69
2022/01/13 14:40:53;;;;;;;;;;;;;;;1.53;67.75;98733.06;4241797;27;5609;-69
2022/01/13 14:43:05;;;;;;;;;;;;;;;1.59;67.64;98740.53;4245868;27;5617;-69
2022/01/13 14:45:17;;;;;;;;;;;;;;;1.59;67.79;98734.50;4256739;27;5689;-69
2022/01/13 14:47:19;;;;;;;;;;;;;;;1.59;67.99;98745.75;4240200;27;5434;-69
2022/01/13 14:49:27;;;;;;;;;;;;;;;1.59;67.87;98737.94;4244930;27;7159;-69
2022/01/13 14:51:30;;;;;;;;;;;;;;;1.62;67.56;98739.53;4263080;27;7659;-69
2022/01/13 14:53:33;;;;;;;;;;;;;;;1.60;67.69;98744.00;4248448;27;5584;-69
2022/01/13 14:55:34;;;;;;;;;;;;;;;1.55;68.02;98748.63;4250732;27;5613;-69
2022/01/13 14:57:36;;;;;;;;;;;;;;;1.59;67.75;98739.72;4257799;27;5693;-69
2022/01/13 14:59:38;;;;;;;;;;;;;;;1.62;67.86;98739.53;4259295;27;5109;-69
2022/01/13 15:01:43;;;;;;;;;;;;;;;1.64;67.69;98746.31;4262193;27;5725;-70
2022/01/13 15:03:47;;;;;;;;;;;;;;;1.63;67.84;98747.25;4264377;27;5670;-69
2022/01/13 15:05:49;;;;;;;;;;;;;;;1.69;67.64;98741.66;4242285;27;5629;-69
2022/01/13 15:07:50;;;;;;;;;;;;;;;1.72;67.54;98740.66;4245651;27;5134;-69
2022/01/13 15:09:52;;;;;;;;;;;;;;;1.72;67.51;98744.09;4227940;28;7706;-69
2022/01/13 15:11:55;;;;;;;;;;;;;;;1.69;67.53;98741.66;4260759;27;5661;-69
2022/01/13 15:13:57;;;;;;;;;;;;;;;1.65;67.50;98745.38;4260121;27;5737;-69
2022/01/13 15:15:59;;;;;;;;;;;;;;;1.65;67.51;98753.22;4240902;27;5746;-69
2022/01/13 15:18:01;;;;;;;;;;;;;;;1.59;67.71;98748.38;4258834;27;5608;-69
2022/01/13 15:20:04;;;;;;;;;;;;;;;1.61;67.87;98743.91;4254363;27;5043;-69
2022/01/13 15:22:05;;;;;;;;;;;;;;;1.60;67.71;98747.44;4259577;27;7643;-69
2022/01/13 15:24:08;;;;;;;;;;;;;;;1.51;67.66;98747.97;4204345;28;5745;-69
2022/01/13 15:26:10;;;;;;;;;;;;;;;1.64;67.71;98746.31;4242644;27;5701;-69
2022/01/13 15:28:12;;;;;;;;;;;;;;;1.61;67.89;98749.09;4263942;27;5784;-70
2022/01/13 15:30:13;;;;;;;;;;;;;;;1.56;67.37;98750.28;4260052;27;5657;-70
2022/01/13 15:32:15;;;;;;;;;;;;;;;1.34;68.33;98750.69;4260450;27;5736;-69
2022/01/13 15:34:16;;;;;;;;;;;;;;;1.56;67.97;98763.31;4265654;27;5094;-70
2022/01/13 15:36:23;;;;;;;;;;;;;;;1.67;67.60;98759.16;4268647;27;5613;-70
2022/01/13 15:38:26;;;;;;;;;;;;;;;1.69;67.66;98757.31;4256681;27;5593;-70
2022/01/13 15:40:29;;;;;;;;;;;;;;;1.73;67.47;98756.22;4259230;27;5609;-70
2022/01/13 15:42:33;;;;;;;;;;;;;;;1.69;67.56;98757.31;4248860;27;5526;-70
2022/01/13 15:44:35;;;;;;;;;;;;;;;1.69;67.89;98762.50;4215784;27;6183;-69
2022/01/13 15:46:38;;;;;;;;;;;;;;;1.81;67.63;98771.38;4241889;27;5695;-69
2022/01/13 15:48:39;;;;;;;;;;;;;;;1.86;67.29;98760.72;4253545;27;5862;-68
2022/01/13 15:50:41;;;;;;;;;;;;;;;1.83;67.23;98763.50;4234841;27;5850;-66
2022/01/13 15:52:44;;;;;;;;;;;;;;;1.71;68.37;98765.06;4246561;27;5601;-68
2022/01/13 15:54:45;;;;;;;;;;;;;;;1.59;68.74;98766.63;4252415;27;5258;-69
2022/01/13 15:56:47;;;;;;;;;;;;;;;1.73;68.44;98763.19;4234120;27;5853;-69
2022/01/13 15:58:49;;;;;;;;;;;;;;;1.85;68.08;98767.69;4258607;27;5718;-69
2022/01/13 16:00:50;;;;;;;;;;;;;;;1.85;68.11;98772.91;4249896;27;5706;-69
2022/01/13 16:02:52;;;;;;;;;;;;;;;1.89;68.13;98768.34;4258381;27;5573;-69
2022/01/13 16:04:54;;;;;;;;;;;;;;;1.87;68.27;98765.00;4253475;27;5732;-69
2022/01/13 16:06:56;;;;;;;;;;;;;;;1.73;69.21;98778.84;4256663;27;5853;-68
2022/01/13 16:08:57;;;;;;;;;;;;;;;1.81;69.17;98775.78;4250844;27;6207;-67
2022/01/13 16:11:04;;;;;;;;;;;;;;;1.86;68.95;98778.97;4231610;27;5623;-68
2022/01/13 16:13:06;;;;;;;;;;;;;;;1.82;69.00;98773.09;4257599;27;5639;-68
2022/01/13 16:15:12;;;;;;;;;;;;;;;1.89;68.76;98770.94;4264336;27;5618;-67
2022/01/13 16:17:14;;;;;;;;;;;;;;;1.89;68.64;98770.94;4264118;27;5713;-68
2022/01/13 16:19:16;;;;;;;;;;;;;;;1.73;69.75;98777.06;4283176;27;5658;-67
2022/01/13 16:21:18;;;;;;;;;;;;;;;1.70;69.54;98777.25;4256559;27;5715;-67